Time,TemperatureF,DewpointF,PressureIn,WindDirection,WindDirectionDegrees,WindSpeedMPH,WindSpeedGustMPH,Humidity,HourlyPrecipIn,Conditions,Clouds,dailyrainin,SoftwareType,DateUTC
2013-05-18 00:03:00,46.1,43.6,30.22,NNW,343,0.0,1.0,91,0.00,,,0.00,WUHU216DAVISVP2,2013-05-18 04:03:00,
2013-05-18 00:14:00,45.9,43.9,30.22,NNW,342,0.0,0.0,93,0.00,,,0.00,WUHU216DAVISVP2,2013-05-18 04:14:00,
2013-05-18 00:22:00,45.6,43.6,30.22,NNW,343,0.0,0.0,93,0.00,,,0.00,WUHU216DAVISVP2,2013-05-18 04:22:00,
2013-05-18 00:30:00,45.2,43.3,30.22,NNW,342,0.0,0.0,93,0.00,,,0.00,WUHU216DAVISVP2,2013-05-18 04:30:00,
2013-05-18 00:40:00,45.1,43.5,30.22,NNW,343,0.0,0.0,94,0.00,,,0.00,WUHU216DAVISVP2,2013-05-18 04:40:00,
2013-05-18 00:51:00,44.9,43.2,30.22,NNW,343,0.0,0.0,94,0.00,,,0.00,WUHU216DAVISVP2,2013-05-18 04:51:00,
2013-05-18 00:59:00,44.6,42.9,30.22,NNW,343,1.0,1.0,94,0.00,,,0.00,WUHU216DAVISVP2,2013-05-18 04:59:00,
2013-05-18 01:07:00,44.2,42.5,30.22,NNW,343,0.0,1.0,94,0.00,,,0.00,WUHU216DAVISVP2,2013-05-18 05:07:00,
2013-05-18 01:18:00,43.9,42.6,30.22,NNW,343,1.0,1.0,95,0.00,,,0.00,WUHU216DAVISVP2,2013-05-18 05:18:00,
2013-05-18 01:28:00,43.9,42.5,30.22,NNW,341,0.0,1.0,95,0.00,,,0.00,WUHU216DAVISVP2,2013-05-18 05:28:00,
2013-05-18 01:37:00,43.6,42.2,30.22,NNW,341,0.0,1.0,95,0.00,,,0.00,WUHU216DAVISVP2,2013-05-18 05:37:00,
2013-05-18 01:45:00,43.6,42.2,30.22,NNW,342,0.0,0.0,95,0.00,,,0.00,WUHU216DAVISVP2,2013-05-18 05:45:00,
2013-05-18 01:55:00,43.5,42.4,30.22,NNW,342,0.0,1.0,96,0.00,,,0.00,WUHU216DAVISVP2,2013-05-18 05:55:00,
2013-05-18 02:06:00,43.2,42.1,30.22,NNW,341,0.0,1.0,96,0.00,,,0.00,WUHU216DAVISVP2,2013-05-18 06:06:00,
2013-05-18 02:14:00,43.0,41.9,30.22,NNW,341,0.0,1.0,96,0.00,,,0.00,WUHU216DAVISVP2,2013-05-18 06:14:00,
2013-05-18 02:22:00,42.8,41.7,30.23,NNW,342,0.0,1.0,96,0.00,,,0.00,WUHU216DAVISVP2,2013-05-18 06:22:00,
2013-05-18 02:32:00,42.4,41.3,30.23,NNW,342,0.0,0.0,96,0.00,,,0.00,WUHU216DAVISVP2,2013-05-18 06:32:00,
2013-05-18 02:43:00,42.1,41.0,30.23,NNW,342,0.0,0.0,96,0.00,,,0.00,WUHU216DAVISVP2,2013-05-18 06:43:00,
2013-05-18 02:51:00,41.9,40.8,30.23,NNW,342,0.0,0.0,96,0.00,,,0.00,WUHU216DAVISVP2,2013-05-18 06:51:00,
2013-05-18 02:59:00,41.7,40.6,30.23,NNW,342,0.0,0.0,96,0.00,,,0.00,WUHU216DAVISVP2,2013-05-18 06:59:00,
2013-05-18 03:10:00,41.5,40.4,30.23,NNW,342,0.0,0.0,96,0.00,,,0.00,WUHU216DAVISVP2,2013-05-18 07:10:00,
2013-05-18 03:21:00,41.2,40.1,30.23,NNW,342,0.0,1.0,96,0.00,,,0.00,WUHU216DAVISVP2,2013-05-18 07:21:00,
2013-05-18 03:29:00,41.1,40.0,30.24,NNW,342,0.0,1.0,96,0.00,,,0.00,WUHU216DAVISVP2,2013-05-18 07:29:00,
2013-05-18 03:37:00,40.7,39.6,30.24,NNW,342,0.0,0.0,96,0.00,,,0.00,WUHU216DAVISVP2,2013-05-18 07:37:00,
2013-05-18 03:47:00,40.3,39.3,30.24,NNW,341,0.0,0.0,96,0.00,,,0.00,WUHU216DAVISVP2,2013-05-18 07:47:00,
2013-05-18 03:58:00,40.5,39.7,30.25,NNW,341,0.0,0.0,97,0.00,,,0.00,WUHU216DAVISVP2,2013-05-18 07:58:00,
2013-05-18 04:06:00,40.2,39.4,30.25,NNW,341,0.0,0.0,97,0.00,,,0.00,WUHU216DAVISVP2,2013-05-18 08:06:00,
2013-05-18 04:14:00,39.9,39.1,30.25,NNW,341,0.0,0.0,97,0.00,,,0.00,WUHU216DAVISVP2,2013-05-18 08:14:00,
2013-05-18 04:24:00,39.9,39.1,30.25,NNW,341,0.0,0.0,97,0.00,,,0.00,WUHU216DAVISVP2,2013-05-18 08:24:00,
2013-05-18 04:35:00,39.5,38.7,30.25,NNW,342,0.0,0.0,97,0.00,,,0.00,WUHU216DAVISVP2,2013-05-18 08:35:00,
2013-05-18 04:43:00,39.3,38.5,30.25,NNW,342,0.0,0.0,97,0.00,,,0.00,WUHU216DAVISVP2,2013-05-18 08:43:00,
2013-05-18 04:51:00,39.2,38.4,30.26,NNW,342,0.0,0.0,97,0.00,,,0.00,WUHU216DAVISVP2,2013-05-18 08:51:00,
2013-05-18 05:02:00,39.5,38.7,30.26,NNW,341,0.0,0.0,97,0.00,,,0.00,WUHU216DAVISVP2,2013-05-18 09:02:00,
2013-05-18 05:13:00,39.6,38.8,30.26,NNW,341,0.0,1.0,97,0.00,,,0.00,WUHU216DAVISVP2,2013-05-18 09:13:00,
2013-05-18 05:21:00,39.7,38.9,30.27,NNW,341,0.0,1.0,97,0.00,,,0.00,WUHU216DAVISVP2,2013-05-18 09:21:00,
2013-05-18 05:29:00,39.7,38.9,30.27,NNW,341,0.0,0.0,97,0.00,,,0.00,WUHU216DAVISVP2,2013-05-18 09:29:00,
2013-05-18 05:39:00,39.6,38.8,30.27,NNW,338,0.0,1.0,97,0.00,,,0.00,WUHU216DAVISVP2,2013-05-18 09:39:00,
2013-05-18 05:50:00,39.4,38.6,30.28,NNW,337,0.0,1.0,97,0.00,,,0.00,WUHU216DAVISVP2,2013-05-18 09:50:00,
2013-05-18 05:58:00,39.4,38.6,30.28,NNW,337,0.0,1.0,97,0.00,,,0.00,WUHU216DAVISVP2,2013-05-18 09:58:00,
2013-05-18 06:06:00,39.6,38.8,30.28,NNW,338,0.0,0.0,97,0.00,,,0.00,WUHU216DAVISVP2,2013-05-18 10:06:00,
2013-05-18 06:17:00,40.6,40.1,30.28,NNW,338,0.0,0.0,98,0.00,,,0.00,WUHU216DAVISVP2,2013-05-18 10:17:00,
2013-05-18 06:27:00,41.9,41.1,30.29,NNW,337,0.0,0.0,97,0.00,,,0.00,WUHU216DAVISVP2,2013-05-18 10:27:00,
2013-05-18 06:35:00,43.4,42.8,30.29,NNW,339,0.0,0.0,98,0.00,,,0.00,WUHU216DAVISVP2,2013-05-18 10:35:00,
2013-05-18 06:44:00,44.8,44.2,30.30,NNW,342,0.0,0.0,98,0.00,,,0.00,WUHU216DAVISVP2,2013-05-18 10:44:00,
2013-05-18 06:54:00,45.4,44.6,30.30,NNW,341,0.0,0.0,97,0.00,,,0.00,WUHU216DAVISVP2,2013-05-18 10:54:00,
2013-05-18 07:05:00,45.8,45.0,30.30,NNW,341,0.0,0.0,97,0.00,,,0.00,WUHU216DAVISVP2,2013-05-18 11:05:00,
2013-05-18 07:13:00,47.3,46.5,30.30,NNW,340,0.0,0.0,97,0.00,,,0.00,WUHU216DAVISVP2,2013-05-18 11:13:00,
2013-05-18 07:21:00,47.7,46.3,30.31,NNW,343,1.0,1.0,95,0.00,,,0.00,WUHU216DAVISVP2,2013-05-18 11:21:00,
2013-05-18 07:31:00,48.1,45.9,30.31,NNW,343,0.0,1.0,92,0.00,,,0.00,WUHU216DAVISVP2,2013-05-18 11:31:00,
2013-05-18 07:42:00,49.5,46.9,30.31,NNW,342,0.0,1.0,91,0.00,,,0.00,WUHU216DAVISVP2,2013-05-18 11:42:00,
2013-05-18 07:50:00,50.6,46.3,30.31,WNW,292,1.2,2.0,85,0.00,,,0.00,WUHU216DAVISVP2,2013-05-18 11:50:00,
2013-05-18 07:58:00,51.0,46.9,30.31,WNW,291,0.0,2.0,86,0.00,,,0.00,WUHU216DAVISVP2,2013-05-18 11:58:00,
2013-05-18 08:09:00,52.1,47.1,30.31,NE,39,0.0,1.0,83,0.00,,,0.00,WUHU216DAVISVP2,2013-05-18 12:09:00,
2013-05-18 08:20:00,53.3,46.0,30.31,NE,50,1.7,3.0,76,0.00,,,0.00,WUHU216DAVISVP2,2013-05-18 12:20:00,
2013-05-18 08:28:00,54.0,46.3,30.31,North,3,1.2,4.0,75,0.00,,,0.00,WUHU216DAVISVP2,2013-05-18 12:28:00,
2013-05-18 08:36:00,55.1,45.6,30.32,East,80,1.4,4.0,70,0.00,,,0.00,WUHU216DAVISVP2,2013-05-18 12:36:00,
2013-05-18 08:46:00,55.5,46.7,30.32,East,94,1.0,2.0,72,0.00,,,0.00,WUHU216DAVISVP2,2013-05-18 12:46:00,
2013-05-18 08:57:00,55.8,46.7,30.32,NNE,23,2.0,2.0,71,0.00,,,0.00,WUHU216DAVISVP2,2013-05-18 12:57:00,
2013-05-18 09:05:00,56.7,46.8,30.32,NE,40,2.1,4.0,69,0.00,,,0.00,WUHU216DAVISVP2,2013-05-18 13:05:00,
2013-05-18 09:13:00,57.1,46.8,30.31,ESE,111,3.0,4.0,68,0.00,,,0.00,WUHU216DAVISVP2,2013-05-18 13:13:00,
2013-05-18 09:23:00,58.4,47.6,30.31,ESE,123,1.1,4.0,67,0.00,,,0.00,WUHU216DAVISVP2,2013-05-18 13:23:00,
2013-05-18 09:34:00,59.9,46.6,30.31,SE,129,1.2,3.0,61,0.00,,,0.00,WUHU216DAVISVP2,2013-05-18 13:34:00,
2013-05-18 09:42:00,60.4,46.6,30.31,NE,41,2.0,3.0,60,0.00,,,0.00,WUHU216DAVISVP2,2013-05-18 13:42:00,
2013-05-18 09:50:00,60.9,48.4,30.31,SE,129,1.4,4.0,63,0.00,,,0.00,WUHU216DAVISVP2,2013-05-18 13:50:00,
2013-05-18 10:01:00,61.5,47.2,30.30,NNE,24,1.0,4.0,59,0.00,,,0.00,WUHU216DAVISVP2,2013-05-18 14:01:00,
2013-05-18 10:12:00,62.8,48.4,30.30,SSE,153,1.0,6.0,59,0.00,,,0.00,WUHU216DAVISVP2,2013-05-18 14:12:00,
2013-05-18 10:20:00,64.1,48.5,30.30,SSE,150,1.0,6.0,57,0.00,,,0.00,WUHU216DAVISVP2,2013-05-18 14:20:00,
2013-05-18 10:28:00,63.4,48.4,30.30,ESE,104,2.7,5.0,58,0.00,,,0.00,WUHU216DAVISVP2,2013-05-18 14:28:00,
2013-05-18 10:38:00,64.6,47.6,30.30,WSW,242,2.9,5.0,54,0.00,,,0.00,WUHU216DAVISVP2,2013-05-18 14:38:00,
2013-05-18 10:49:00,64.8,48.4,30.29,NNE,22,3.0,6.0,55,0.00,,,0.00,WUHU216DAVISVP2,2013-05-18 14:49:00,
2013-05-18 10:57:00,66.1,48.6,30.29,South,171,1.5,6.0,53,0.00,,,0.00,WUHU216DAVISVP2,2013-05-18 14:57:00,
2013-05-18 11:05:00,68.0,48.7,30.29,NE,45,2.0,5.0,50,0.00,,,0.00,WUHU216DAVISVP2,2013-05-18 15:05:00,
2013-05-18 11:16:00,67.8,48.0,30.29,SSE,147,1.2,5.0,49,0.00,,,0.00,WUHU216DAVISVP2,2013-05-18 15:16:00,
2013-05-18 11:26:00,67.9,48.1,30.28,SE,135,2.0,6.0,49,0.00,,,0.00,WUHU216DAVISVP2,2013-05-18 15:26:00,
2013-05-18 11:35:00,68.4,46.8,30.28,SSE,156,1.2,8.0,46,0.00,,,0.00,WUHU216DAVISVP2,2013-05-18 15:35:00,
2013-05-18 11:43:00,69.6,46.0,30.27,SE,134,7.0,9.0,43,0.00,,,0.00,WUHU216DAVISVP2,2013-05-18 15:43:00,
2013-05-18 11:53:00,69.2,43.7,30.27,ESE,118,5.6,10.0,40,0.00,,,0.00,WUHU216DAVISVP2,2013-05-18 15:53:00,
2013-05-18 12:04:00,70.5,44.3,30.27,SE,132,5.0,12.0,39,0.00,,,0.00,WUHU216DAVISVP2,2013-05-18 16:04:00,
2013-05-18 12:12:00,71.3,42.8,30.26,SE,126,3.7,13.0,36,0.00,,,0.00,WUHU216DAVISVP2,2013-05-18 16:12:00,
2013-05-18 12:20:00,71.4,41.4,30.26,SE,128,6.5,13.0,34,0.00,,,0.00,WUHU216DAVISVP2,2013-05-18 16:20:00,
2013-05-18 12:27:00,70.8,40.9,30.26,SE,140,5.1,13.0,34,0.00,,,0.00,WUHU216DAVISVP2,2013-05-18 16:27:00,
2013-05-18 12:33:00,71.3,41.3,30.26,SE,124,4.0,10.0,34,0.00,,,0.00,WUHU216DAVISVP2,2013-05-18 16:33:00,
2013-05-18 12:41:00,71.6,40.8,30.25,SE,135,4.1,8.0,33,0.00,,,0.00,WUHU216DAVISVP2,2013-05-18 16:41:00,
2013-05-18 12:49:00,72.6,42.6,30.25,ESE,123,2.3,8.0,34,0.00,,,0.00,WUHU216DAVISVP2,2013-05-18 16:49:00,
2013-05-18 12:57:00,72.8,42.6,30.25,SW,218,4.0,9.0,34,0.00,,,0.00,WUHU216DAVISVP2,2013-05-18 16:57:00,
2013-05-18 13:08:00,71.6,40.0,30.25,SE,130,4.3,12.0,32,0.00,,,0.00,WUHU216DAVISVP2,2013-05-18 17:08:00,
2013-05-18 13:19:00,72.3,41.4,30.24,SSE,160,3.1,12.0,33,0.00,,,0.00,WUHU216DAVISVP2,2013-05-18 17:19:00,
2013-05-18 13:27:00,72.3,40.8,30.24,ESE,121,4.7,9.0,32,0.00,,,0.00,WUHU216DAVISVP2,2013-05-18 17:27:00,
2013-05-18 13:35:00,72.3,42.2,30.24,SE,126,1.9,9.0,34,0.00,,,0.00,WUHU216DAVISVP2,2013-05-18 17:35:00,
2013-05-18 13:45:00,72.6,42.4,30.24,SE,137,4.4,10.0,34,0.00,,,0.00,WUHU216DAVISVP2,2013-05-18 17:45:00,
2013-05-18 13:56:00,72.4,44.5,30.23,ESE,118,3.0,9.0,37,0.00,,,0.00,WUHU216DAVISVP2,2013-05-18 17:56:00,
2013-05-18 14:04:00,72.6,43.4,30.23,South,188,3.8,9.0,35,0.00,,,0.00,WUHU216DAVISVP2,2013-05-18 18:04:00,
2013-05-18 14:12:00,72.7,44.0,30.23,SSW,200,4.0,8.0,36,0.00,,,0.00,WUHU216DAVISVP2,2013-05-18 18:12:00,
2013-05-18 14:22:00,72.7,44.8,30.23,SSE,153,7.0,8.0,37,0.00,,,0.00,WUHU216DAVISVP2,2013-05-18 18:22:00,
2013-05-18 14:33:00,72.4,44.5,30.23,SW,219,4.0,9.0,37,0.00,,,0.00,WUHU216DAVISVP2,2013-05-18 18:33:00,
2013-05-18 14:41:00,72.0,45.7,30.22,South,180,3.8,11.0,39,0.00,,,0.00,WUHU216DAVISVP2,2013-05-18 18:41:00,
2013-05-18 14:49:00,71.9,45.5,30.23,SSW,207,4.0,11.0,39,0.00,,,0.00,WUHU216DAVISVP2,2013-05-18 18:49:00,
2013-05-18 15:00:00,71.8,45.4,30.22,SSW,201,2.8,13.0,39,0.00,,,0.00,WUHU216DAVISVP2,2013-05-18 19:00:00,
2013-05-18 15:11:00,72.2,45.7,30.22,West,266,5.0,13.0,39,0.00,,,0.00,WUHU216DAVISVP2,2013-05-18 19:11:00,
2013-05-18 15:19:00,72.0,45.0,30.22,SSW,193,2.9,9.0,38,0.00,,,0.00,WUHU216DAVISVP2,2013-05-18 19:19:00,
2013-05-18 15:27:00,71.8,44.7,30.22,SSW,197,3.3,9.0,38,0.00,,,0.00,WUHU216DAVISVP2,2013-05-18 19:27:00,
2013-05-18 15:37:00,71.4,45.0,30.22,SW,217,3.4,12.0,39,0.00,,,0.00,WUHU216DAVISVP2,2013-05-18 19:37:00,
2013-05-18 15:38:00,71.3,45.6,30.22,SSW,205,3.2,12.0,40,0.00,,,0.00,WUHU216DAVISVP2,2013-05-18 19:38:00,
2013-05-18 15:43:00,71.1,46.1,30.22,WSW,244,3.0,11.0,41,0.00,,,0.00,WUHU216DAVISVP2,2013-05-18 19:43:00,
2013-05-18 15:48:00,71.4,45.7,30.22,SSE,163,3.0,11.0,40,0.00,,,0.00,WUHU216DAVISVP2,2013-05-18 19:48:00,
2013-05-18 15:53:00,71.4,46.5,30.22,SE,124,3.0,8.0,41,0.00,,,0.00,WUHU216DAVISVP2,2013-05-18 19:53:00,
2013-05-18 15:58:00,71.4,46.4,30.22,SW,214,2.8,8.0,41,0.00,,,0.00,WUHU216DAVISVP2,2013-05-18 19:58:00,
2013-05-18 16:03:00,71.4,47.7,30.22,South,176,2.9,10.0,43,0.00,,,0.00,WUHU216DAVISVP2,2013-05-18 20:03:00,
2013-05-18 16:08:00,71.4,47.7,30.22,SE,139,5.0,10.0,43,0.00,,,0.00,WUHU216DAVISVP2,2013-05-18 20:08:00,
2013-05-18 16:13:00,71.1,46.8,30.21,East,101,4.0,14.0,42,0.00,,,0.00,WUHU216DAVISVP2,2013-05-18 20:13:00,
2013-05-18 16:18:00,71.2,47.5,30.22,South,182,3.0,14.0,43,0.00,,,0.00,WUHU216DAVISVP2,2013-05-18 20:18:00,
2013-05-18 16:23:00,71.0,47.9,30.22,SSW,201,5.0,14.0,44,0.00,,,0.00,WUHU216DAVISVP2,2013-05-18 20:23:00,
2013-05-18 16:28:00,71.0,48.0,30.22,South,187,5.5,14.0,44,0.00,,,0.00,WUHU216DAVISVP2,2013-05-18 20:28:00,
2013-05-18 16:33:00,70.9,48.5,30.22,South,173,3.0,10.0,45,0.00,,,0.00,WUHU216DAVISVP2,2013-05-18 20:33:00,
2013-05-18 16:38:00,71.5,47.8,30.22,SE,134,6.0,10.0,43,0.00,,,0.00,WUHU216DAVISVP2,2013-05-18 20:38:00,
2013-05-18 16:43:00,71.7,49.8,30.22,SE,126,3.0,12.0,46,0.00,,,0.00,WUHU216DAVISVP2,2013-05-18 20:43:00,
2013-05-18 16:48:00,72.6,48.2,30.22,South,172,4.3,13.0,42,0.00,,,0.00,WUHU216DAVISVP2,2013-05-18 20:48:00,
2013-05-18 16:53:00,72.6,48.1,30.22,SSW,197,4.8,13.0,42,0.00,,,0.00,WUHU216DAVISVP2,2013-05-18 20:53:00,
2013-05-18 16:58:00,72.7,48.2,30.21,SW,224,5.0,13.0,42,0.00,,,0.00,WUHU216DAVISVP2,2013-05-18 20:58:00,
2013-05-18 17:03:00,72.5,48.7,30.21,WNW,282,5.0,13.0,43,0.00,,,0.00,WUHU216DAVISVP2,2013-05-18 21:03:00,
2013-05-18 17:08:00,72.4,48.6,30.21,South,186,4.0,12.0,43,0.00,,,0.00,WUHU216DAVISVP2,2013-05-18 21:08:00,
2013-05-18 17:13:00,72.5,49.3,30.21,South,191,3.5,12.0,44,0.00,,,0.00,WUHU216DAVISVP2,2013-05-18 21:13:00,
2013-05-18 17:18:00,73.0,51.0,30.21,South,177,2.0,12.0,46,0.00,,,0.00,WUHU216DAVISVP2,2013-05-18 21:18:00,
2013-05-18 17:23:00,73.0,49.1,30.21,SSW,195,5.0,12.0,43,0.00,,,0.00,WUHU216DAVISVP2,2013-05-18 21:23:00,
2013-05-18 17:28:00,73.1,49.2,30.21,SSW,195,3.1,8.0,43,0.00,,,0.00,WUHU216DAVISVP2,2013-05-18 21:28:00,
2013-05-18 17:33:00,72.6,49.4,30.21,SSW,207,2.1,9.0,44,0.00,,,0.00,WUHU216DAVISVP2,2013-05-18 21:33:00,
2013-05-18 17:38:00,71.9,48.8,30.21,SSW,195,2.0,9.0,44,0.00,,,0.00,WUHU216DAVISVP2,2013-05-18 21:38:00,
2013-05-18 17:43:00,71.4,47.7,30.21,South,191,4.3,12.0,43,0.00,,,0.00,WUHU216DAVISVP2,2013-05-18 21:43:00,
2013-05-18 17:48:00,70.9,47.2,30.21,SSW,201,5.0,12.0,43,0.00,,,0.00,WUHU216DAVISVP2,2013-05-18 21:48:00,
2013-05-18 17:53:00,71.1,48.7,30.21,South,176,5.0,11.0,45,0.00,,,0.00,WUHU216DAVISVP2,2013-05-18 21:53:00,
2013-05-18 17:58:00,70.9,48.5,30.22,ESE,115,6.0,14.0,45,0.00,,,0.00,WUHU216DAVISVP2,2013-05-18 21:58:00,
2013-05-18 18:03:00,70.7,48.9,30.21,South,181,4.9,14.0,46,0.00,,,0.00,WUHU216DAVISVP2,2013-05-18 22:03:00,
2013-05-18 18:08:00,70.4,48.6,30.22,South,177,5.4,14.0,46,0.00,,,0.00,WUHU216DAVISVP2,2013-05-18 22:08:00,
2013-05-18 18:13:00,70.0,48.8,30.22,SW,216,3.4,12.0,47,0.00,,,0.00,WUHU216DAVISVP2,2013-05-18 22:13:00,
2013-05-18 18:18:00,69.9,49.3,30.22,SSW,193,3.6,12.0,48,0.00,,,0.00,WUHU216DAVISVP2,2013-05-18 22:18:00,
2013-05-18 18:23:00,69.5,49.0,30.22,South,187,3.3,12.0,48,0.00,,,0.00,WUHU216DAVISVP2,2013-05-18 22:23:00,
2013-05-18 18:28:00,68.9,48.4,30.22,SSE,163,5.8,15.0,48,0.00,,,0.00,WUHU216DAVISVP2,2013-05-18 22:28:00,
2013-05-18 18:33:00,68.5,48.6,30.22,South,169,8.0,15.0,49,0.00,,,0.00,WUHU216DAVISVP2,2013-05-18 22:33:00,
2013-05-18 18:38:00,68.0,48.2,30.22,SSE,166,6.1,15.0,49,0.00,,,0.00,WUHU216DAVISVP2,2013-05-18 22:38:00,
2013-05-18 18:43:00,67.5,48.2,30.22,SSW,201,3.6,15.0,50,0.00,,,0.00,WUHU216DAVISVP2,2013-05-18 22:43:00,
2013-05-18 18:48:00,67.2,48.5,30.22,South,184,3.0,13.0,51,0.00,,,0.00,WUHU216DAVISVP2,2013-05-18 22:48:00,
2013-05-18 18:53:00,66.9,48.8,30.22,SSW,193,6.0,13.0,52,0.00,,,0.00,WUHU216DAVISVP2,2013-05-18 22:53:00,
2013-05-18 18:58:00,66.5,48.9,30.22,SSE,157,4.2,10.0,53,0.00,,,0.00,WUHU216DAVISVP2,2013-05-18 22:58:00,
2013-05-18 19:03:00,66.2,49.2,30.22,SSE,154,5.5,11.0,54,0.00,,,0.00,WUHU216DAVISVP2,2013-05-18 23:03:00,
2013-05-18 19:08:00,65.8,49.3,30.23,SW,222,4.0,11.0,55,0.00,,,0.00,WUHU216DAVISVP2,2013-05-18 23:08:00,
2013-05-18 19:13:00,65.6,49.6,30.23,South,180,3.8,11.0,56,0.00,,,0.00,WUHU216DAVISVP2,2013-05-18 23:13:00,
2013-05-18 19:18:00,65.4,49.9,30.23,SSW,208,4.8,13.0,57,0.00,,,0.00,WUHU216DAVISVP2,2013-05-18 23:18:00,
2013-05-18 19:23:00,65.4,50.4,30.23,South,172,2.1,13.0,58,0.00,,,0.00,WUHU216DAVISVP2,2013-05-18 23:23:00,
2013-05-18 19:28:00,65.3,49.7,30.23,South,182,5.1,12.0,57,0.00,,,0.00,WUHU216DAVISVP2,2013-05-18 23:28:00,
2013-05-18 19:33:00,65.0,49.9,30.23,SSW,202,5.4,14.0,58,0.00,,,0.00,WUHU216DAVISVP2,2013-05-18 23:33:00,
2013-05-18 19:38:00,64.5,50.0,30.23,SSE,166,4.7,14.0,59,0.00,,,0.00,WUHU216DAVISVP2,2013-05-18 23:38:00,
2013-05-18 19:43:00,64.0,50.0,30.23,SSE,149,4.0,14.0,60,0.00,,,0.00,WUHU216DAVISVP2,2013-05-18 23:43:00,
2013-05-18 19:48:00,63.6,49.6,30.23,South,185,5.5,14.0,60,0.00,,,0.00,WUHU216DAVISVP2,2013-05-18 23:48:00,
2013-05-18 19:53:00,63.2,49.7,30.23,South,191,5.0,14.0,61,0.00,,,0.00,WUHU216DAVISVP2,2013-05-18 23:53:00,
2013-05-18 19:58:00,62.8,49.7,30.23,SSW,199,4.5,14.0,62,0.00,,,0.00,WUHU216DAVISVP2,2013-05-18 23:58:00,
2013-05-18 20:03:00,62.5,49.5,30.23,SSW,195,4.1,14.0,62,0.00,,,0.00,WUHU216DAVISVP2,2013-05-19 00:03:00,
2013-05-18 20:08:00,62.2,49.6,30.23,South,170,3.5,13.0,63,0.00,,,0.00,WUHU216DAVISVP2,2013-05-19 00:08:00,
2013-05-18 20:13:00,62.0,49.4,30.23,SSW,201,3.8,13.0,63,0.00,,,0.00,WUHU216DAVISVP2,2013-05-19 00:13:00,
2013-05-18 20:18:00,61.7,49.1,30.23,SSE,166,7.0,13.0,63,0.00,,,0.00,WUHU216DAVISVP2,2013-05-19 00:18:00,
2013-05-18 20:23:00,61.6,49.5,30.23,South,173,2.7,12.0,64,0.00,,,0.00,WUHU216DAVISVP2,2013-05-19 00:23:00,
2013-05-18 20:28:00,61.4,49.3,30.23,South,189,7.0,12.0,64,0.00,,,0.00,WUHU216DAVISVP2,2013-05-19 00:28:00,
2013-05-18 20:33:00,61.3,49.2,30.23,WSW,240,7.0,11.0,64,0.00,,,0.00,WUHU216DAVISVP2,2013-05-19 00:33:00,
2013-05-18 20:38:00,61.2,49.1,30.24,South,176,3.3,11.0,64,0.00,,,0.00,WUHU216DAVISVP2,2013-05-19 00:38:00,
2013-05-18 20:43:00,61.1,49.0,30.23,SW,231,6.0,11.0,64,0.00,,,0.00,WUHU216DAVISVP2,2013-05-19 00:43:00,
2013-05-18 20:48:00,61.0,49.3,30.24,South,169,4.0,11.0,65,0.00,,,0.00,WUHU216DAVISVP2,2013-05-19 00:48:00,
2013-05-18 20:53:00,60.8,49.1,30.24,SE,146,2.0,11.0,65,0.00,,,0.00,WUHU216DAVISVP2,2013-05-19 00:53:00,
2013-05-18 20:58:00,60.7,49.4,30.24,SE,143,3.4,11.0,66,0.00,,,0.00,WUHU216DAVISVP2,2013-05-19 00:58:00,
2013-05-18 21:03:00,60.6,49.3,30.24,ESE,114,3.0,11.0,66,0.00,,,0.00,WUHU216DAVISVP2,2013-05-19 01:03:00,
2013-05-18 21:08:00,60.5,49.2,30.25,SSW,194,3.1,8.0,66,0.00,,,0.00,WUHU216DAVISVP2,2013-05-19 01:08:00,
2013-05-18 21:13:00,60.4,49.5,30.24,South,180,1.7,8.0,67,0.00,,,0.00,WUHU216DAVISVP2,2013-05-19 01:13:00,
2013-05-18 21:18:00,60.2,49.3,30.25,SSW,197,4.0,8.0,67,0.00,,,0.00,WUHU216DAVISVP2,2013-05-19 01:18:00,
2013-05-18 21:23:00,60.1,49.5,30.24,South,174,2.2,10.0,68,0.00,,,0.00,WUHU216DAVISVP2,2013-05-19 01:23:00,
2013-05-18 21:28:00,60.0,49.8,30.25,SSE,160,3.9,11.0,69,0.00,,,0.00,WUHU216DAVISVP2,2013-05-19 01:28:00,
2013-05-18 21:33:00,60.0,49.8,30.25,SSE,149,2.1,11.0,69,0.00,,,0.00,WUHU216DAVISVP2,2013-05-19 01:33:00,
2013-05-18 21:38:00,59.8,50.1,30.25,SSE,166,2.5,11.0,70,0.00,,,0.00,WUHU216DAVISVP2,2013-05-19 01:38:00,
2013-05-18 21:43:00,59.7,50.0,30.25,South,173,3.9,11.0,70,0.00,,,0.00,WUHU216DAVISVP2,2013-05-19 01:43:00,
2013-05-18 21:48:00,59.7,50.4,30.25,SSE,161,3.6,11.0,71,0.00,,,0.00,WUHU216DAVISVP2,2013-05-19 01:48:00,
2013-05-18 21:53:00,59.5,50.2,30.25,South,180,4.3,12.0,71,0.00,,,0.00,WUHU216DAVISVP2,2013-05-19 01:53:00,
2013-05-18 21:58:00,59.4,50.5,30.25,SSW,201,2.3,12.0,72,0.00,,,0.00,WUHU216DAVISVP2,2013-05-19 01:58:00,
2013-05-18 22:03:00,59.2,50.7,30.25,SSW,200,3.6,12.0,73,0.00,,,0.00,WUHU216DAVISVP2,2013-05-19 02:03:00,
2013-05-18 22:08:00,59.0,50.5,30.25,WSW,252,2.0,12.0,73,0.00,,,0.00,WUHU216DAVISVP2,2013-05-19 02:08:00,
2013-05-18 22:13:00,58.8,50.6,30.26,SSE,164,2.2,10.0,74,0.00,,,0.00,WUHU216DAVISVP2,2013-05-19 02:13:00,
2013-05-18 22:18:00,58.6,50.8,30.25,ESE,115,2.0,9.0,75,0.00,,,0.00,WUHU216DAVISVP2,2013-05-19 02:18:00,
2013-05-18 22:23:00,58.3,50.5,30.25,ESE,115,3.0,7.0,75,0.00,,,0.00,WUHU216DAVISVP2,2013-05-19 02:23:00,
2013-05-18 22:28:00,58.1,50.7,30.25,South,175,1.1,7.0,76,0.00,,,0.00,WUHU216DAVISVP2,2013-05-19 02:28:00,
2013-05-18 22:33:00,57.8,50.4,30.25,SE,146,2.8,5.0,76,0.00,,,0.00,WUHU216DAVISVP2,2013-05-19 02:33:00,
2013-05-18 22:38:00,57.7,50.6,30.25,ESE,120,4.0,7.0,77,0.00,,,0.00,WUHU216DAVISVP2,2013-05-19 02:38:00,
2013-05-18 22:43:00,57.5,50.3,30.25,South,172,3.0,7.0,77,0.00,,,0.00,WUHU216DAVISVP2,2013-05-19 02:43:00,
2013-05-18 22:48:00,57.3,50.1,30.25,SE,137,1.9,7.0,77,0.00,,,0.00,WUHU216DAVISVP2,2013-05-19 02:48:00,
2013-05-18 22:53:00,57.1,50.3,30.25,SSE,163,1.3,7.0,78,0.00,,,0.00,WUHU216DAVISVP2,2013-05-19 02:53:00,
2013-05-18 22:58:00,56.9,50.2,30.25,SSE,165,1.6,5.0,78,0.00,,,0.00,WUHU216DAVISVP2,2013-05-19 02:58:00,
2013-05-18 23:03:00,56.7,50.3,30.25,SE,137,1.5,5.0,79,0.00,,,0.00,WUHU216DAVISVP2,2013-05-19 03:03:00,
2013-05-18 23:08:00,56.6,50.2,30.26,SE,141,1.3,5.0,79,0.00,,,0.00,WUHU216DAVISVP2,2013-05-19 03:08:00,
2013-05-18 23:13:00,56.4,50.4,30.26,SSE,167,2.0,5.0,80,0.00,,,0.00,WUHU216DAVISVP2,2013-05-19 03:13:00,
2013-05-18 23:19:00,56.2,50.2,30.26,SSE,152,1.3,5.0,80,0.00,,,0.00,WUHU216DAVISVP2,2013-05-19 03:19:00,
2013-05-18 23:23:00,56.1,50.4,30.26,SSE,154,2.3,5.0,81,0.00,,,0.00,WUHU216DAVISVP2,2013-05-19 03:23:00,
2013-05-18 23:28:00,56.1,50.4,30.26,South,183,2.4,6.0,81,0.00,,,0.00,WUHU216DAVISVP2,2013-05-19 03:28:00,
2013-05-18 23:34:00,55.9,50.5,30.26,ESE,120,2.0,6.0,82,0.00,,,0.00,WUHU216DAVISVP2,2013-05-19 03:34:00,
2013-05-18 23:39:00,55.7,50.3,30.26,SSW,197,2.0,6.0,82,0.00,,,0.00,WUHU216DAVISVP2,2013-05-19 03:39:00,
2013-05-18 23:44:00,55.6,50.5,30.26,SSE,151,1.7,6.0,83,0.00,,,0.00,WUHU216DAVISVP2,2013-05-19 03:44:00,
2013-05-18 23:49:00,55.5,50.4,30.26,South,186,1.6,5.0,83,0.00,,,0.00,WUHU216DAVISVP2,2013-05-19 03:49:00,
2013-05-18 23:54:00,55.4,50.3,30.26,SSE,158,1.4,5.0,83,0.00,,,0.00,WUHU216DAVISVP2,2013-05-19 03:54:00,
2013-05-18 23:59:00,55.2,50.5,30.26,South,181,2.3,5.0,84,0.00,,,0.00,WUHU216DAVISVP2,2013-05-19 03:59:00,